createdAt,value
2018-07-26T00:00:48.737Z,24.51
2018-07-26T00:01:49.310Z,24.42
2018-07-26T00:02:49.897Z,24.38
2018-07-26T00:03:50.464Z,24.39
2018-07-26T00:04:51.034Z,24.33
2018-07-26T00:05:51.591Z,24.36
2018-07-26T00:06:52.147Z,24.26
2018-07-26T00:07:52.704Z,24.32
2018-07-26T00:08:53.261Z,24.31
2018-07-26T00:09:53.851Z,24.23
2018-07-26T00:10:54.379Z,24.26
2018-07-26T00:11:54.927Z,24.20
2018-07-26T00:12:55.480Z,24.16
2018-07-26T00:13:56.039Z,24.02
2018-07-26T00:14:56.595Z,23.98
2018-07-26T00:15:57.150Z,24.01
2018-07-26T00:16:57.713Z,24.01
2018-07-26T00:17:58.272Z,24.08
2018-07-26T00:18:58.830Z,24.06
2018-07-26T00:19:59.386Z,23.99
2018-07-26T00:20:59.943Z,24.03
2018-07-26T00:22:00.494Z,24.09
2018-07-26T00:23:01.051Z,24.02
2018-07-26T00:24:01.608Z,24.01
2018-07-26T00:25:02.167Z,23.94
2018-07-26T00:26:02.723Z,23.90
2018-07-26T00:27:03.281Z,23.87
2018-07-26T00:28:03.833Z,23.83
2018-07-26T00:29:04.380Z,23.81
2018-07-26T00:30:04.943Z,23.83
2018-07-26T00:31:05.495Z,23.83
2018-07-26T00:32:06.053Z,23.84
2018-07-26T00:33:06.608Z,23.84
2018-07-26T00:34:07.156Z,23.80
2018-07-26T00:35:07.713Z,23.80
2018-07-26T00:36:08.267Z,23.86
2018-07-26T00:37:08.823Z,23.83
2018-07-26T00:38:09.378Z,23.77
2018-07-26T00:39:09.934Z,23.80
2018-07-26T00:40:10.498Z,23.81
2018-07-26T00:41:11.055Z,23.81
2018-07-26T00:42:11.610Z,23.80
2018-07-26T00:43:12.156Z,23.80
2018-07-26T00:44:12.712Z,23.72
2018-07-26T00:45:13.267Z,23.79
2018-07-26T00:46:13.827Z,23.71
2018-07-26T00:47:14.380Z,23.61
2018-07-26T00:48:14.938Z,23.59
2018-07-26T00:49:15.499Z,23.68
2018-07-26T00:50:16.056Z,23.59
2018-07-26T00:51:16.612Z,23.51
2018-07-26T00:52:17.170Z,23.47
2018-07-26T00:53:17.726Z,23.46
2018-07-26T00:54:18.283Z,23.44
2018-07-26T00:55:18.840Z,23.44
2018-07-26T00:56:19.401Z,23.49
2018-07-26T00:57:19.955Z,23.46
2018-07-26T00:58:20.511Z,23.43
2018-07-26T00:59:21.068Z,23.46
2018-07-26T01:00:21.625Z,23.47
2018-07-26T01:01:22.187Z,23.41
2018-07-26T01:02:22.745Z,23.35
2018-07-26T01:03:23.302Z,23.34
2018-07-26T01:04:23.852Z,23.32
2018-07-26T01:05:24.408Z,23.25
2018-07-26T01:06:24.965Z,23.23
2018-07-26T01:07:25.519Z,23.25
2018-07-26T01:08:26.119Z,23.34
2018-07-26T01:09:26.725Z,23.25
2018-07-26T01:10:27.232Z,23.15
2018-07-26T01:11:27.793Z,23.18
2018-07-26T01:12:28.351Z,23.16
2018-07-26T01:13:28.905Z,23.18
2018-07-26T01:14:29.457Z,23.16
2018-07-26T01:15:30.014Z,23.16
2018-07-26T01:16:30.572Z,23.23
2018-07-26T01:17:31.130Z,23.16
2018-07-26T01:18:31.681Z,23.27
2018-07-26T01:19:32.236Z,23.24
2018-07-26T01:20:32.792Z,23.16
2018-07-26T01:21:33.348Z,23.06
2018-07-26T01:22:33.907Z,22.93
2018-07-26T01:23:34.465Z,22.97
2018-07-26T01:24:35.012Z,22.99
2018-07-26T01:25:35.570Z,22.95
2018-07-26T01:26:36.126Z,23.02
2018-07-26T01:27:36.684Z,22.99
2018-07-26T01:28:37.233Z,22.93
2018-07-26T01:29:37.790Z,22.93
2018-07-26T01:30:38.341Z,22.97
2018-07-26T01:31:38.897Z,22.90
2018-07-26T01:32:39.461Z,22.99
2018-07-26T01:33:40.006Z,22.97
2018-07-26T01:34:40.560Z,23.00
2018-07-26T01:35:41.114Z,23.00
2018-07-26T01:36:41.672Z,23.02
2018-07-26T01:37:42.230Z,22.93
2018-07-26T01:38:42.787Z,22.88
2018-07-26T01:39:43.342Z,22.95
2018-07-26T01:40:43.899Z,22.84
2018-07-26T01:41:44.474Z,22.93
2018-07-26T01:42:45.012Z,22.93
2018-07-26T01:43:45.569Z,22.81
2018-07-26T01:44:46.127Z,22.84
2018-07-26T01:45:46.682Z,22.85
2018-07-26T01:46:47.235Z,22.79
2018-07-26T01:47:47.785Z,22.85
2018-07-26T01:48:48.341Z,22.84
2018-07-26T01:49:48.892Z,22.79
2018-07-26T01:50:49.442Z,22.90
2018-07-26T01:51:50.000Z,22.83
2018-07-26T01:52:50.555Z,22.83
2018-07-26T01:53:51.109Z,22.83
2018-07-26T01:54:51.664Z,22.81
2018-07-26T01:55:52.213Z,22.84
2018-07-26T01:56:52.772Z,22.79
2018-07-26T01:57:53.325Z,22.68
2018-07-26T01:58:53.873Z,22.65
2018-07-26T01:59:54.424Z,22.73
2018-07-26T02:00:54.980Z,22.63
2018-07-26T02:01:55.538Z,22.62
2018-07-26T02:02:56.097Z,22.47
2018-07-26T02:03:56.651Z,22.47
2018-07-26T02:04:57.207Z,22.50
2018-07-26T02:05:57.763Z,22.44
2018-07-26T02:06:58.314Z,22.40
2018-07-26T02:07:58.875Z,22.35
2018-07-26T02:08:59.433Z,22.33
2018-07-26T02:09:59.982Z,22.26
2018-07-26T02:11:00.539Z,22.26
2018-07-26T02:12:01.098Z,22.18
2018-07-26T02:13:01.653Z,22.26
2018-07-26T02:14:02.212Z,22.23
2018-07-26T02:15:02.768Z,22.20
2018-07-26T02:16:03.326Z,22.18
2018-07-26T02:17:03.876Z,22.18
2018-07-26T02:18:04.432Z,22.28
2018-07-26T02:19:05.004Z,22.28
2018-07-26T02:20:05.538Z,22.23
2018-07-26T02:21:06.104Z,22.21
2018-07-26T02:22:06.649Z,22.13
2018-07-26T02:23:07.210Z,22.13
2018-07-26T02:24:07.765Z,22.18
2018-07-26T02:25:08.318Z,22.20
2018-07-26T02:26:08.876Z,22.20
2018-07-26T02:27:09.434Z,22.17
2018-07-26T02:28:09.994Z,22.02
2018-07-26T02:29:10.545Z,22.08
2018-07-26T02:30:11.104Z,22.14
2018-07-26T02:31:11.729Z,22.11
2018-07-26T02:32:12.207Z,21.86
2018-07-26T02:33:12.767Z,21.95
2018-07-26T02:34:13.324Z,21.98
2018-07-26T02:35:13.872Z,22.01
2018-07-26T02:36:14.431Z,21.95
2018-07-26T02:37:14.988Z,21.91
2018-07-26T02:38:15.556Z,21.99
2018-07-26T02:39:16.097Z,22.01
2018-07-26T02:40:16.656Z,22.02
2018-07-26T02:41:17.210Z,21.96
2018-07-26T02:42:17.760Z,21.99
2018-07-26T02:43:18.313Z,21.95
2018-07-26T02:44:18.871Z,21.95
2018-07-26T02:45:19.429Z,22.03
2018-07-26T02:46:19.988Z,21.92
2018-07-26T02:47:20.542Z,21.99
2018-07-26T02:48:21.091Z,22.01
2018-07-26T02:49:21.647Z,22.08
2018-07-26T02:50:22.205Z,21.92
2018-07-26T02:51:22.763Z,21.83
2018-07-26T02:52:23.379Z,21.79
2018-07-26T02:53:23.877Z,21.77
2018-07-26T02:54:24.433Z,21.77
2018-07-26T02:55:24.983Z,21.79
2018-07-26T02:56:25.540Z,21.77
2018-07-26T02:57:26.094Z,21.83
2018-07-26T02:58:26.654Z,21.80
2018-07-26T02:59:27.209Z,21.80
2018-07-26T03:00:27.763Z,21.72
2018-07-26T03:01:28.317Z,21.73
2018-07-26T03:02:28.866Z,21.80
2018-07-26T03:03:29.424Z,21.76
2018-07-26T03:04:29.976Z,21.60
2018-07-26T03:05:30.532Z,21.62
2018-07-26T03:06:31.091Z,21.65
2018-07-26T03:07:31.649Z,21.72
2018-07-26T03:08:32.206Z,21.72
2018-07-26T03:09:32.751Z,21.75
2018-07-26T03:10:33.316Z,21.76
2018-07-26T03:11:33.864Z,21.72
2018-07-26T03:12:34.413Z,21.72
2018-07-26T03:13:34.973Z,21.72
2018-07-26T03:14:35.519Z,21.79
2018-07-26T03:15:36.075Z,21.72
2018-07-26T03:16:36.627Z,21.79
2018-07-26T03:17:37.184Z,21.75
2018-07-26T03:18:37.742Z,21.75
2018-07-26T03:19:38.295Z,21.72
2018-07-26T03:20:38.856Z,21.65
2018-07-26T03:21:39.409Z,21.73
2018-07-26T03:22:39.967Z,21.73
2018-07-26T03:23:40.523Z,21.79
2018-07-26T03:24:41.081Z,21.73
2018-07-26T03:25:41.639Z,21.82
2018-07-26T03:26:42.193Z,21.82
2018-07-26T03:27:42.752Z,21.91
2018-07-26T03:28:43.308Z,21.82
2018-07-26T03:29:43.859Z,21.82
2018-07-26T03:30:44.416Z,21.79
2018-07-26T03:31:44.975Z,21.79
2018-07-26T03:32:45.529Z,21.79
2018-07-26T03:33:46.087Z,21.82
2018-07-26T03:34:46.643Z,21.73
2018-07-26T03:35:47.202Z,21.76
2018-07-26T03:36:47.762Z,21.72
2018-07-26T03:37:48.320Z,21.64
2018-07-26T03:38:48.884Z,21.62
2018-07-26T03:39:49.441Z,21.64
2018-07-26T03:40:49.998Z,21.60
2018-07-26T03:41:50.559Z,21.60
2018-07-26T03:42:51.124Z,21.52
2018-07-26T03:43:51.680Z,21.51
2018-07-26T03:44:52.228Z,21.54
2018-07-26T03:45:52.789Z,21.51
2018-07-26T03:46:53.347Z,21.54
2018-07-26T03:47:53.908Z,21.40
2018-07-26T03:48:54.464Z,21.46
2018-07-26T03:49:55.016Z,21.37
2018-07-26T03:50:55.573Z,21.42
2018-07-26T03:51:56.138Z,21.39
2018-07-26T03:52:56.695Z,21.46
2018-07-26T03:53:57.248Z,21.42
2018-07-26T03:54:57.799Z,21.51
2018-07-26T03:55:58.353Z,21.51
2018-07-26T03:56:58.908Z,21.43
2018-07-26T03:57:59.471Z,21.39
2018-07-26T03:59:00.041Z,21.25
2018-07-26T04:00:00.583Z,21.27
2018-07-26T04:01:01.146Z,21.20
2018-07-26T04:02:01.707Z,21.28
2018-07-26T04:03:02.261Z,21.28
2018-07-26T04:04:02.823Z,21.27
2018-07-26T04:05:03.385Z,21.30
2018-07-26T04:06:03.935Z,21.32
2018-07-26T04:07:04.494Z,21.25
2018-07-26T04:08:05.054Z,21.21
2018-07-26T04:09:05.611Z,21.28
2018-07-26T04:10:06.168Z,21.25
2018-07-26T04:11:06.735Z,21.28
2018-07-26T04:12:07.290Z,21.35
2018-07-26T04:13:07.849Z,21.30
2018-07-26T04:14:08.427Z,21.25
2018-07-26T04:15:08.968Z,21.36
2018-07-26T04:16:09.525Z,21.40
2018-07-26T04:17:10.084Z,21.35
2018-07-26T04:18:10.648Z,21.35
2018-07-26T04:19:11.204Z,21.39
2018-07-26T04:20:11.781Z,21.36
2018-07-26T04:21:12.322Z,21.39
2018-07-26T04:22:12.878Z,21.24
2018-07-26T04:23:13.429Z,21.25
2018-07-26T04:24:13.981Z,21.27
2018-07-26T04:25:14.534Z,21.35
2018-07-26T04:26:15.096Z,21.37
2018-07-26T04:27:15.655Z,21.43
2018-07-26T04:28:16.215Z,21.42
2018-07-26T04:29:16.776Z,21.43
2018-07-26T04:30:17.337Z,21.51
2018-07-26T04:31:17.900Z,21.55
2018-07-26T04:32:18.453Z,21.52
2018-07-26T04:33:19.012Z,21.64
2018-07-26T04:34:19.571Z,21.60
2018-07-26T04:35:20.128Z,21.61
2018-07-26T04:36:20.691Z,21.65
2018-07-26T04:37:21.249Z,21.62
2018-07-26T04:38:21.803Z,21.62
2018-07-26T04:39:22.364Z,21.62
2018-07-26T04:40:22.925Z,21.65
2018-07-26T04:41:23.487Z,21.67
2018-07-26T04:42:24.041Z,21.79
2018-07-26T04:43:24.599Z,21.93
2018-07-26T04:44:25.161Z,21.98
2018-07-26T04:45:25.718Z,22.08
2018-07-26T04:46:26.288Z,22.24
2018-07-26T04:47:26.842Z,22.38
2018-07-26T04:48:27.397Z,22.60
2018-07-26T04:49:27.962Z,22.73
2018-07-26T04:50:28.523Z,22.87
2018-07-26T04:51:29.089Z,23.06
2018-07-26T04:52:29.652Z,23.39
2018-07-26T04:53:30.212Z,23.34
2018-07-26T04:54:30.813Z,23.34
2018-07-26T04:55:31.329Z,23.46
2018-07-26T04:56:31.894Z,23.35
2018-07-26T04:57:32.458Z,23.16
2018-07-26T04:58:33.021Z,23.18
2018-07-26T04:59:33.577Z,23.32
2018-07-26T05:00:34.141Z,23.44
2018-07-26T05:01:34.708Z,23.49
2018-07-26T05:02:35.273Z,23.53
2018-07-26T05:03:35.836Z,23.56
2018-07-26T05:04:36.397Z,23.77
2018-07-26T05:05:36.956Z,24.08
2018-07-26T05:06:37.520Z,24.23
2018-07-26T05:07:38.082Z,24.41
2018-07-26T05:08:38.651Z,24.74
2018-07-26T05:09:39.215Z,24.74
2018-07-26T05:11:23.942Z,24.84
2018-07-26T05:12:24.515Z,24.96
2018-07-26T05:13:25.111Z,25.18
2018-07-26T05:14:25.684Z,25.25
2018-07-26T05:15:26.259Z,25.11
2018-07-26T05:16:26.832Z,25.29
2018-07-26T05:17:27.406Z,25.44
2018-07-26T05:18:27.977Z,25.36
2018-07-26T05:19:28.525Z,25.24
2018-07-26T05:20:29.091Z,24.95
2018-07-26T05:21:29.662Z,24.84
2018-07-26T05:22:30.229Z,24.70
2018-07-26T05:23:30.791Z,24.84
2018-07-26T05:24:31.352Z,25.04
2018-07-26T05:25:31.915Z,24.94
2018-07-26T05:26:32.474Z,24.70
2018-07-26T05:27:33.042Z,24.66
2018-07-26T05:28:33.608Z,24.51
2018-07-26T05:29:34.172Z,24.42
2018-07-26T05:30:34.739Z,24.41
2018-07-26T05:31:35.304Z,24.46
2018-07-26T05:32:35.873Z,24.45
2018-07-26T05:33:36.436Z,24.41
2018-07-26T05:34:36.999Z,24.48
2018-07-26T05:35:37.564Z,24.45
2018-07-26T05:36:38.130Z,24.43
2018-07-26T05:37:38.698Z,24.79
2018-07-26T05:38:39.250Z,24.81
2018-07-26T05:39:39.808Z,24.84
2018-07-26T05:40:40.376Z,24.83
2018-07-26T05:41:40.940Z,24.92
2018-07-26T05:42:41.497Z,24.88
2018-07-26T05:43:42.055Z,24.96
2018-07-26T05:44:42.622Z,24.96
2018-07-26T05:45:43.181Z,25.04
2018-07-26T05:46:43.742Z,24.91
2018-07-26T05:47:44.308Z,24.96
2018-07-26T05:48:44.876Z,25.01
2018-07-26T05:49:45.449Z,24.94
2018-07-26T05:50:46.009Z,24.94
2018-07-26T05:51:46.574Z,25.06
2018-07-26T05:52:47.142Z,24.99
2018-07-26T05:53:47.709Z,24.98
2018-07-26T05:54:48.273Z,24.95
2018-07-26T05:55:48.840Z,25.09
2018-07-26T05:56:49.406Z,25.13
2018-07-26T05:57:49.975Z,25.18
2018-07-26T05:58:50.537Z,25.28
2018-07-26T05:59:51.104Z,25.33
2018-07-26T06:00:51.670Z,25.36
2018-07-26T06:01:52.235Z,25.31
2018-07-26T06:02:52.803Z,25.32
2018-07-26T06:03:53.370Z,25.43
2018-07-26T06:04:53.943Z,25.44
2018-07-26T06:05:54.505Z,25.47
2018-07-26T06:06:55.073Z,25.44
2018-07-26T06:07:55.638Z,25.51
2018-07-26T06:08:56.209Z,25.62
2018-07-26T06:09:56.778Z,25.65
2018-07-26T06:10:57.346Z,25.75
2018-07-26T06:11:57.902Z,25.69
2018-07-26T06:12:58.467Z,25.84
2018-07-26T06:13:59.031Z,25.73
2018-07-26T06:14:59.600Z,25.78
2018-07-26T06:16:00.172Z,25.78
2018-07-26T06:17:00.737Z,25.83
2018-07-26T06:18:01.307Z,25.76
2018-07-26T06:19:01.875Z,25.78
2018-07-26T06:20:02.441Z,25.83
2018-07-26T06:21:03.012Z,25.80
2018-07-26T06:22:03.580Z,25.90
2018-07-26T06:23:04.144Z,25.99
2018-07-26T06:24:04.710Z,26.10
2018-07-26T06:25:05.277Z,26.25
2018-07-26T06:26:05.842Z,26.28
2018-07-26T06:27:06.404Z,26.28
2018-07-26T06:28:06.992Z,26.36
2018-07-26T06:29:07.552Z,26.48
2018-07-26T06:30:08.112Z,26.47
2018-07-26T06:31:08.706Z,26.55
2018-07-26T06:32:09.252Z,26.66
2018-07-26T06:33:09.816Z,26.73
2018-07-26T06:34:10.382Z,26.87
2018-07-26T06:35:10.945Z,26.88
2018-07-26T06:36:11.505Z,26.84
2018-07-26T06:37:12.081Z,26.85
2018-07-26T06:38:12.644Z,27.00
2018-07-26T06:39:13.216Z,27.08
2018-07-26T06:40:13.782Z,27.20
2018-07-26T06:41:14.343Z,27.32
2018-07-26T06:42:14.921Z,27.40
2018-07-26T06:43:15.492Z,27.51
2018-07-26T06:44:16.061Z,27.50
2018-07-26T06:45:16.631Z,27.62
2018-07-26T06:46:17.216Z,27.71
2018-07-26T06:47:17.769Z,27.96
2018-07-26T06:48:18.334Z,28.03
2018-07-26T06:49:18.905Z,28.18
2018-07-26T06:50:19.472Z,28.32
2018-07-26T06:51:20.039Z,28.69
2018-07-26T06:52:20.614Z,29.15
2018-07-26T06:53:21.179Z,29.27
2018-07-26T06:54:21.750Z,29.37
2018-07-26T06:55:22.361Z,29.74
2018-07-26T06:56:22.894Z,30.11
2018-07-26T06:57:23.463Z,30.44
2018-07-26T06:58:24.038Z,31.08
2018-07-26T06:59:24.617Z,31.47
2018-07-26T07:00:25.188Z,32.05
2018-07-26T07:01:25.760Z,32.40
2018-07-26T07:02:26.343Z,32.95
2018-07-26T07:03:26.907Z,33.27
2018-07-26T07:04:27.485Z,33.55
2018-07-26T07:05:28.069Z,33.71
2018-07-26T07:06:28.636Z,33.67
2018-07-26T07:07:29.211Z,33.58
2018-07-26T07:08:29.780Z,33.58
2018-07-26T07:09:30.355Z,33.86
2018-07-26T07:10:30.926Z,33.97
2018-07-26T07:11:31.500Z,34.17
2018-07-26T07:12:32.079Z,34.71
2018-07-26T07:13:32.659Z,35.03
2018-07-26T07:14:33.225Z,35.20
2018-07-26T07:15:33.793Z,35.33
2018-07-26T07:16:34.359Z,35.57
2018-07-26T07:17:34.934Z,35.81
2018-07-26T07:18:35.510Z,36.07
2018-07-26T07:19:36.083Z,36.41
2018-07-26T07:20:36.685Z,36.77
2018-07-26T07:21:37.240Z,37.04
2018-07-26T07:22:37.823Z,37.05
2018-07-26T07:23:38.395Z,37.23
2018-07-26T07:24:38.975Z,37.24
2018-07-26T07:25:39.558Z,37.43
2018-07-26T07:26:40.135Z,37.54
2018-07-26T07:27:40.746Z,37.51
2018-07-26T07:28:41.294Z,37.20
2018-07-26T07:29:41.878Z,37.20
2018-07-26T07:30:42.458Z,37.20
2018-07-26T07:31:43.032Z,36.98
2018-07-26T07:32:43.610Z,37.17
2018-07-26T07:33:44.191Z,37.17
2018-07-26T07:34:44.766Z,36.79
2018-07-26T07:35:45.346Z,36.83
2018-07-26T07:36:45.924Z,36.86
2018-07-26T07:37:46.497Z,37.05
2018-07-26T07:38:47.065Z,36.79
2018-07-26T07:39:47.687Z,36.68
2018-07-26T07:40:48.230Z,36.73
2018-07-26T07:41:48.845Z,36.83
2018-07-26T07:42:49.374Z,36.89
2018-07-26T07:43:49.949Z,37.12
2018-07-26T07:44:50.531Z,37.24
2018-07-26T07:45:51.111Z,37.24
2018-07-26T07:46:51.691Z,37.04
2018-07-26T07:47:52.269Z,37.01
2018-07-26T07:48:52.848Z,36.85
2018-07-26T07:49:53.423Z,36.76
2018-07-26T07:50:53.996Z,36.58
2018-07-26T07:51:54.589Z,36.14
2018-07-26T07:52:55.205Z,36.03
2018-07-26T07:53:55.746Z,36.29
2018-07-26T07:54:56.315Z,36.50
2018-07-26T07:55:56.892Z,36.49
2018-07-26T07:56:57.470Z,36.61
2018-07-26T07:57:58.043Z,36.79
2018-07-26T07:58:58.622Z,37.24
2018-07-26T07:59:59.198Z,37.31
2018-07-26T08:00:59.781Z,37.21
2018-07-26T08:02:00.361Z,37.55
2018-07-26T08:03:00.943Z,37.76
2018-07-26T08:04:01.526Z,37.77
2018-07-26T08:05:02.106Z,37.71
2018-07-26T08:06:02.689Z,37.92
2018-07-26T08:07:03.268Z,37.95
2018-07-26T08:08:03.853Z,37.61
2018-07-26T08:09:04.431Z,37.47
2018-07-26T08:10:05.012Z,37.42
2018-07-26T08:11:05.589Z,37.28
2018-07-26T08:12:06.168Z,37.46
2018-07-26T08:13:06.746Z,37.39
2018-07-26T08:14:07.325Z,37.46
2018-07-26T08:15:07.898Z,37.71
2018-07-26T08:16:08.476Z,38.15
2018-07-26T08:17:09.060Z,37.86
2018-07-26T08:18:09.662Z,37.69
2018-07-26T08:19:10.214Z,37.51
2018-07-26T08:20:10.791Z,37.59
2018-07-26T08:21:11.370Z,37.29
2018-07-26T08:22:11.953Z,37.26
2018-07-26T08:23:12.531Z,37.21
2018-07-26T08:24:13.103Z,37.36
2018-07-26T08:25:13.680Z,37.24
2018-07-26T08:26:14.265Z,37.41
2018-07-26T08:27:14.836Z,37.39
2018-07-26T08:28:15.414Z,37.55
2018-07-26T08:29:16.001Z,37.50
2018-07-26T08:30:16.576Z,37.50
2018-07-26T08:31:17.152Z,37.33
2018-07-26T08:32:17.731Z,37.62
2018-07-26T08:33:18.311Z,37.47
2018-07-26T08:34:18.891Z,37.29
2018-07-26T08:35:19.469Z,37.36
2018-07-26T08:36:20.049Z,37.67
2018-07-26T08:37:20.626Z,37.99
2018-07-26T08:38:21.208Z,38.03
2018-07-26T08:39:21.785Z,38.37
2018-07-26T08:40:22.355Z,38.60
2018-07-26T08:41:22.936Z,38.41
2018-07-26T08:42:23.526Z,38.79
2018-07-26T08:43:24.095Z,38.89
2018-07-26T08:44:24.672Z,39.06
2018-07-26T08:45:25.250Z,39.14
2018-07-26T08:46:25.828Z,39.35
2018-07-26T08:47:26.405Z,39.36
2018-07-26T08:48:26.978Z,39.54
2018-07-26T08:49:27.549Z,39.80
2018-07-26T08:50:28.129Z,39.74
2018-07-26T08:51:28.711Z,39.58
2018-07-26T08:52:29.290Z,39.28
2018-07-26T08:53:29.876Z,39.30
2018-07-26T08:54:30.448Z,39.36
2018-07-26T08:55:31.029Z,39.35
2018-07-26T08:56:31.603Z,39.35
2018-07-26T08:57:32.185Z,39.61
2018-07-26T08:58:32.764Z,39.76
2018-07-26T08:59:33.342Z,39.57
2018-07-26T09:00:33.923Z,39.33
2018-07-26T09:01:34.502Z,39.14
2018-07-26T09:02:35.094Z,38.95
2018-07-26T09:03:35.659Z,38.63
2018-07-26T09:04:36.239Z,38.71
2018-07-26T09:05:36.837Z,38.83
2018-07-26T09:06:37.405Z,39.10
2018-07-26T09:07:37.986Z,39.37
2018-07-26T09:08:38.568Z,39.59
2018-07-26T09:09:39.145Z,39.66
2018-07-26T09:10:39.723Z,39.54
2018-07-26T09:11:40.382Z,39.49
2018-07-26T09:12:40.883Z,39.35
2018-07-26T09:13:41.516Z,39.37
2018-07-26T09:14:42.035Z,39.40
2018-07-26T09:15:42.617Z,39.37
2018-07-26T09:16:43.198Z,39.57
2018-07-26T09:17:43.779Z,39.66
2018-07-26T09:18:44.354Z,39.71
2018-07-26T09:19:44.950Z,39.73
2018-07-26T09:20:45.511Z,39.76
2018-07-26T09:21:46.092Z,39.73
2018-07-26T09:22:46.670Z,39.88
2018-07-26T09:23:47.252Z,40.11
2018-07-26T09:24:47.831Z,39.92
2018-07-26T09:25:48.412Z,39.61
2018-07-26T09:26:48.997Z,39.27
2018-07-26T09:27:49.571Z,39.05
2018-07-26T09:28:50.187Z,39.23
2018-07-26T09:29:50.732Z,39.39
2018-07-26T09:30:51.303Z,39.28
2018-07-26T09:31:51.884Z,39.36
2018-07-26T09:32:52.493Z,39.35
2018-07-26T09:33:53.048Z,39.51
2018-07-26T09:34:53.631Z,39.46
2018-07-26T09:35:54.210Z,39.44
2018-07-26T09:36:54.786Z,39.24
2018-07-26T09:37:55.366Z,39.30
2018-07-26T09:38:55.937Z,39.51
2018-07-26T09:39:56.516Z,39.61
2018-07-26T09:40:57.093Z,39.76
2018-07-26T09:41:57.671Z,39.59
2018-07-26T09:42:58.251Z,39.71
2018-07-26T09:43:58.830Z,40.00
2018-07-26T09:44:59.413Z,40.00
2018-07-26T09:45:59.986Z,39.86
2018-07-26T09:47:00.563Z,39.42
2018-07-26T09:48:01.146Z,39.57
2018-07-26T09:49:01.723Z,39.62
2018-07-26T09:50:02.301Z,39.44
2018-07-26T09:51:02.882Z,39.61
2018-07-26T09:52:03.473Z,39.93
2018-07-26T09:53:04.045Z,39.99
2018-07-26T09:54:04.634Z,39.98
2018-07-26T09:55:05.217Z,39.89
2018-07-26T09:56:05.789Z,39.92
2018-07-26T09:57:06.371Z,40.03
2018-07-26T09:58:06.949Z,40.03
2018-07-26T09:59:07.530Z,40.15
2018-07-26T10:00:08.117Z,40.18
2018-07-26T10:01:08.675Z,40.26
2018-07-26T10:02:09.254Z,40.34
2018-07-26T10:03:09.835Z,40.36
2018-07-26T10:04:10.416Z,40.53
2018-07-26T10:05:10.998Z,40.87
2018-07-26T10:06:11.578Z,41.09
2018-07-26T10:08:27.622Z,41.44
2018-07-26T10:09:28.193Z,41.20
2018-07-26T10:10:28.778Z,41.20
2018-07-26T10:11:29.352Z,41.03
2018-07-26T10:12:29.926Z,40.76
2018-07-26T10:13:30.509Z,40.81
2018-07-26T10:14:31.093Z,40.76
2018-07-26T10:15:31.673Z,40.52
2018-07-26T10:16:32.254Z,40.34
2018-07-26T10:17:32.835Z,40.41
2018-07-26T10:18:33.411Z,40.56
2018-07-26T10:19:33.989Z,40.69
2018-07-26T10:20:34.562Z,40.69
2018-07-26T10:21:35.254Z,40.46
2018-07-26T10:22:35.737Z,40.50
2018-07-26T10:23:36.344Z,40.21
2018-07-26T10:24:36.948Z,40.43
2018-07-26T10:25:37.535Z,40.68
2018-07-26T10:26:38.111Z,40.61
2018-07-26T10:27:38.720Z,40.49
2018-07-26T10:28:39.265Z,40.32
2018-07-26T10:29:39.847Z,39.99
2018-07-26T10:30:40.432Z,39.96
2018-07-26T10:31:41.011Z,40.11
2018-07-26T10:32:41.588Z,40.41
2018-07-26T10:33:42.164Z,40.46
2018-07-26T10:34:42.744Z,40.36
2018-07-26T10:35:43.327Z,40.57
2018-07-26T10:36:43.900Z,40.75
2018-07-26T10:37:44.476Z,40.43
2018-07-26T10:38:45.050Z,40.27
2018-07-26T10:39:45.628Z,39.76
2018-07-26T10:40:46.208Z,39.66
2018-07-26T10:41:46.784Z,39.89
2018-07-26T10:42:47.364Z,40.21
2018-07-26T10:43:47.941Z,40.47
2018-07-26T10:44:48.542Z,40.08
2018-07-26T10:45:49.102Z,39.77
2018-07-26T10:46:49.680Z,39.55
2018-07-26T10:47:50.263Z,39.51
2018-07-26T10:48:50.844Z,39.55
2018-07-26T10:49:51.432Z,39.47
2018-07-26T10:50:52.005Z,39.39
2018-07-26T10:51:52.584Z,39.62
2018-07-26T10:52:53.160Z,39.99
2018-07-26T10:53:53.735Z,40.26
2018-07-26T10:54:54.316Z,39.92
2018-07-26T10:55:54.896Z,39.43
2018-07-26T10:56:55.474Z,39.36
2018-07-26T10:57:56.056Z,39.51
2018-07-26T10:58:56.634Z,39.70
2018-07-26T10:59:57.206Z,39.49
2018-07-26T11:00:57.782Z,39.76
2018-07-26T11:01:58.369Z,40.14
2018-07-26T11:02:58.932Z,40.26
2018-07-26T11:03:59.508Z,40.71
2018-07-26T11:05:00.085Z,40.27
2018-07-26T11:06:00.662Z,40.29
2018-07-26T11:07:01.236Z,40.52
2018-07-26T11:08:01.816Z,40.67
2018-07-26T11:09:02.392Z,40.56
2018-07-26T11:10:02.967Z,40.96
2018-07-26T11:11:03.545Z,41.10
2018-07-26T11:12:04.121Z,41.25
2018-07-26T11:13:04.704Z,41.30
2018-07-26T11:14:05.284Z,41.22
2018-07-26T11:15:05.894Z,41.22
2018-07-26T11:16:06.439Z,41.18
2018-07-26T11:17:07.020Z,41.15
2018-07-26T11:18:07.629Z,41.22
2018-07-26T11:19:08.225Z,41.37
2018-07-26T11:20:08.785Z,41.47
2018-07-26T11:21:09.368Z,40.99
2018-07-26T11:22:09.953Z,40.81
2018-07-26T11:23:10.530Z,40.81
2018-07-26T11:24:11.152Z,41.03
2018-07-26T11:25:11.686Z,41.18
2018-07-26T11:26:12.284Z,41.50
2018-07-26T11:27:12.844Z,41.86
2018-07-26T11:28:13.473Z,41.77
2018-07-26T11:29:14.052Z,41.62
2018-07-26T11:30:14.623Z,41.58
2018-07-26T11:31:15.201Z,41.91
2018-07-26T11:32:15.774Z,41.94
2018-07-26T11:33:16.352Z,41.84
2018-07-26T11:34:16.931Z,41.37
2018-07-26T11:35:17.501Z,41.43
2018-07-26T11:36:18.081Z,41.49
2018-07-26T11:37:18.660Z,41.58
2018-07-26T11:38:19.237Z,41.49
2018-07-26T11:39:19.819Z,41.32
2018-07-26T11:40:20.402Z,41.21
2018-07-26T11:41:20.997Z,41.35
2018-07-26T11:42:21.559Z,41.52
2018-07-26T11:43:22.140Z,41.81
2018-07-26T11:44:22.719Z,41.93
2018-07-26T11:45:23.296Z,42.04
2018-07-26T11:46:23.875Z,42.52
2018-07-26T11:47:24.490Z,42.83
2018-07-26T11:48:25.068Z,42.94
2018-07-26T11:49:25.649Z,42.75
2018-07-26T11:50:26.224Z,42.69
2018-07-26T11:51:26.806Z,42.15
2018-07-26T11:52:27.386Z,42.23
2018-07-26T11:53:27.966Z,41.52
2018-07-26T11:54:28.544Z,41.22
2018-07-26T11:55:29.124Z,40.98
2018-07-26T11:56:29.696Z,41.32
2018-07-26T11:57:30.273Z,41.36
2018-07-26T11:58:30.852Z,41.36
2018-07-26T11:59:31.426Z,41.65
2018-07-26T12:00:32.009Z,41.78
2018-07-26T12:01:32.588Z,42.01
2018-07-26T12:02:33.193Z,42.28
2018-07-26T12:03:33.735Z,42.50
2018-07-26T12:04:34.308Z,42.59
2018-07-26T12:05:34.887Z,42.46
2018-07-26T12:06:35.467Z,42.42
2018-07-26T12:07:36.165Z,42.44
2018-07-26T12:08:36.744Z,42.52
2018-07-26T12:09:37.322Z,42.23
2018-07-26T12:10:37.903Z,42.25
2018-07-26T12:11:38.488Z,42.20
2018-07-26T12:12:39.066Z,42.11
2018-07-26T12:13:39.664Z,42.22
2018-07-26T12:14:40.243Z,42.15
2018-07-26T12:15:40.831Z,42.11
2018-07-26T12:16:41.403Z,42.20
2018-07-26T12:17:42.006Z,42.53
2018-07-26T12:18:42.555Z,42.75
2018-07-26T12:19:43.146Z,42.97
2018-07-26T12:20:43.721Z,43.33
2018-07-26T12:21:44.298Z,43.56
2018-07-26T12:22:44.877Z,43.64
2018-07-26T12:23:45.457Z,43.48
2018-07-26T12:24:46.036Z,43.66
2018-07-26T12:25:46.624Z,43.86
2018-07-26T12:26:47.268Z,43.98
2018-07-26T12:27:47.792Z,43.98
2018-07-26T12:28:48.367Z,44.05
2018-07-26T12:29:48.970Z,43.52
2018-07-26T12:30:49.552Z,43.26
2018-07-26T12:31:50.136Z,43.12
2018-07-26T12:32:50.717Z,42.98
2018-07-26T12:33:51.297Z,42.79
2018-07-26T12:34:51.880Z,42.79
2018-07-26T12:35:52.518Z,42.30
2018-07-26T12:36:53.023Z,41.47
2018-07-26T12:37:53.603Z,40.99
2018-07-26T12:38:54.180Z,40.59
2018-07-26T12:39:54.811Z,40.59
2018-07-26T12:40:55.388Z,40.94
2018-07-26T12:41:55.965Z,41.47
2018-07-26T12:42:56.550Z,41.49
2018-07-26T12:43:57.118Z,41.94
2018-07-26T12:44:57.699Z,42.47
2018-07-26T12:45:58.276Z,42.73
2018-07-26T12:46:58.858Z,42.56
2018-07-26T12:47:59.438Z,42.65
2018-07-26T12:49:00.022Z,42.68
2018-07-26T12:50:00.595Z,42.53
2018-07-26T12:51:01.174Z,42.53
2018-07-26T12:52:01.759Z,42.13
2018-07-26T12:53:02.335Z,42.03
2018-07-26T12:54:02.910Z,42.04
2018-07-26T12:55:03.563Z,42.32
2018-07-26T12:56:04.174Z,42.68
2018-07-26T12:57:04.653Z,42.00
2018-07-26T12:58:05.219Z,41.58
2018-07-26T12:59:05.791Z,41.13
2018-07-26T13:00:06.370Z,41.06
2018-07-26T13:01:06.948Z,41.28
2018-07-26T13:02:07.532Z,41.64